Time;durP1;ratioP1;P1;durP2;ratioP2;P2;SDS_P1;SDS_P2;PMS_P1;PMS_P2;Temp;Humidity;BMP_temperature;BMP_pressure;BME280_temperature;BME280_humidity;BME280_pressure;Samples;Min_cycle;Max_cycle;Signal;HPM_P1;HPM_P2
2022/12/11 00:01:13;;;;;;;110.57;42.33;;;;;;;;;;5018903;28;20992;-68
2022/12/11 00:03:40;;;;;;;117.40;41.80;;;;;;;;;;4959759;28;20428;-68
2022/12/11 00:06:08;;;;;;;108.83;42.37;;;;;;;;;;4982047;28;20521;-68
2022/12/11 00:08:35;;;;;;;112.27;41.67;;;;;;;;;;4994563;28;20453;-68
2022/12/11 00:11:02;;;;;;;109.90;41.13;;;;;;;;;;5011317;28;20879;-68
2022/12/11 00:13:28;;;;;;;119.03;43.23;;;;;;;;;;5009685;28;20479;-68
2022/12/11 00:15:57;;;;;;;116.10;42.57;;;;;;;;;;5008631;28;21261;-68
2022/12/11 00:18:23;;;;;;;116.60;44.33;;;;;;;;;;5010859;28;20513;-68
2022/12/11 00:20:50;;;;;;;111.07;42.07;;;;;;;;;;5010577;28;20479;-68
2022/12/11 00:23:16;;;;;;;106.53;41.63;;;;;;;;;;4994825;28;20497;-68
2022/12/11 00:25:43;;;;;;;105.27;39.13;;;;;;;;;;5010863;28;20538;-68
2022/12/11 00:28:11;;;;;;;109.63;39.87;;;;;;;;;;4998426;28;20536;-68
2022/12/11 00:30:39;;;;;;;116.40;42.37;;;;;;;;;;4978343;28;20452;-68
2022/12/11 00:33:05;;;;;;;112.00;42.43;;;;;;;;;;4994790;28;20490;-68
2022/12/11 00:35:32;;;;;;;116.70;42.93;;;;;;;;;;5011467;28;20869;-68
2022/12/11 00:37:58;;;;;;;120.07;42.93;;;;;;;;;;5010135;28;20946;-69
2022/12/11 00:40:25;;;;;;;103.30;39.83;;;;;;;;;;4993370;28;20542;-68
2022/12/11 00:42:51;;;;;;;111.40;41.43;;;;;;;;;;5011488;28;20454;-68
2022/12/11 00:45:18;;;;;;;112.60;42.63;;;;;;;;;;4994094;28;20478;-68
2022/12/11 00:47:44;;;;;;;96.77;37.97;;;;;;;;;;4994257;28;20477;-68
2022/12/11 00:50:12;;;;;;;103.20;40.90;;;;;;;;;;4986967;28;20570;-68
2022/12/11 00:52:39;;;;;;;114.07;38.87;;;;;;;;;;4994125;28;21000;-68
2022/12/11 00:55:06;;;;;;;108.57;43.03;;;;;;;;;;5011734;28;21029;-68
2022/12/11 00:57:50;;;;;;;110.23;40.90;;;;;;;;;;5011863;28;20419;-68
2022/12/11 01:00:17;;;;;;;123.63;45.17;;;;;;;;;;5011585;28;20439;-68
2022/12/11 01:02:43;;;;;;;127.13;45.20;;;;;;;;;;5012798;28;20431;-68
2022/12/11 01:05:10;;;;;;;108.80;39.67;;;;;;;;;;5015766;28;20436;-68
2022/12/11 01:07:37;;;;;;;121.33;44.37;;;;;;;;;;4997167;28;20482;-68
2022/12/11 01:10:25;;;;;;;118.53;42.83;;;;;;;;;;5000586;28;20953;-68
2022/12/11 01:12:55;;;;;;;117.87;44.47;;;;;;;;;;4998058;28;20966;-68
2022/12/11 01:15:40;;;;;;;130.17;50.57;;;;;;;;;;5000515;28;20473;-68
2022/12/11 01:18:08;;;;;;;120.97;46.80;;;;;;;;;;4998214;28;20423;-68
2022/12/11 01:20:35;;;;;;;122.27;45.93;;;;;;;;;;5015569;28;20454;-68
2022/12/11 01:23:01;;;;;;;147.13;56.53;;;;;;;;;;4997595;28;20449;-68
2022/12/11 01:25:28;;;;;;;115.97;46.03;;;;;;;;;;5015214;28;20443;-68
2022/12/11 01:27:54;;;;;;;125.57;47.50;;;;;;;;;;5023539;28;20559;-68
2022/12/11 01:30:21;;;;;;;122.00;46.47;;;;;;;;;;5017261;28;20469;-68
2022/12/11 01:32:48;;;;;;;115.60;44.50;;;;;;;;;;5035051;28;20610;-68
2022/12/11 01:35:15;;;;;;;118.47;45.77;;;;;;;;;;5004637;28;20438;-68
2022/12/11 01:37:41;;;;;;;114.77;43.30;;;;;;;;;;4991091;28;20474;-68
2022/12/11 01:40:10;;;;;;;115.57;45.10;;;;;;;;;;5034849;28;20523;-68
2022/12/11 01:42:36;;;;;;;108.73;42.53;;;;;;;;;;4993055;28;20527;-67
2022/12/11 01:45:23;;;;;;;108.93;42.87;;;;;;;;;;4984794;28;20512;-67
2022/12/11 01:47:57;;;;;;;110.70;43.03;;;;;;;;;;5013164;28;20493;-67
2022/12/11 01:50:23;;;;;;;105.77;41.67;;;;;;;;;;4997005;28;20529;-67
2022/12/11 01:52:50;;;;;;;119.33;44.00;;;;;;;;;;4995999;28;20487;-67
2022/12/11 01:55:17;;;;;;;110.43;43.60;;;;;;;;;;4997387;28;20836;-67
2022/12/11 01:57:44;;;;;;;110.93;42.97;;;;;;;;;;4977048;28;20463;-67
2022/12/11 02:00:11;;;;;;;116.53;43.30;;;;;;;;;;4978193;28;20473;-68
2022/12/11 02:02:38;;;;;;;108.23;44.47;;;;;;;;;;4996316;28;20784;-68
2022/12/11 02:05:05;;;;;;;113.70;43.20;;;;;;;;;;4993202;28;20455;-68
2022/12/11 02:07:35;;;;;;;108.77;42.30;;;;;;;;;;4993689;28;21074;-68
2022/12/11 02:10:02;;;;;;;104.10;42.03;;;;;;;;;;4996071;28;20453;-67
2022/12/11 02:12:50;;;;;;;108.03;43.53;;;;;;;;;;4996130;28;20450;-68
2022/12/11 02:15:45;;;;;;;102.43;42.13;;;;;;;;;;4980799;28;20569;-68
2022/12/11 02:18:13;;;;;;;109.43;42.37;;;;;;;;;;5013928;28;20546;-67
2022/12/11 02:20:41;;;;;;;99.03;41.13;;;;;;;;;;4996730;28;20441;-68
2022/12/11 02:23:14;;;;;;;105.23;41.83;;;;;;;;;;5012957;28;20482;-68
2022/12/11 02:25:59;;;;;;;95.17;40.47;;;;;;;;;;5012938;28;20464;-68
2022/12/11 02:28:31;;;;;;;101.27;42.77;;;;;;;;;;5000980;28;21014;-68
2022/12/11 02:31:00;;;;;;;105.60;41.90;;;;;;;;;;5012517;28;20552;-68
2022/12/11 02:33:41;;;;;;;98.00;41.90;;;;;;;;;;5013324;28;20458;-68
2022/12/11 02:36:07;;;;;;;89.80;38.30;;;;;;;;;;4989758;28;20960;-68
2022/12/11 02:38:35;;;;;;;90.87;38.37;;;;;;;;;;4996612;28;20519;-67
2022/12/11 02:41:01;;;;;;;91.23;37.37;;;;;;;;;;4996498;28;20437;-68
2022/12/11 02:43:28;;;;;;;90.60;37.30;;;;;;;;;;4996272;28;20792;-68
2022/12/11 02:45:55;;;;;;;86.03;35.60;;;;;;;;;;5012847;28;20454;-68
2022/12/11 02:48:21;;;;;;;80.43;34.37;;;;;;;;;;5012681;28;20456;-67
2022/12/11 02:50:49;;;;;;;76.97;30.70;;;;;;;;;;4996179;28;20458;-68
2022/12/11 02:53:16;;;;;;;63.97;25.50;;;;;;;;;;4981689;28;20908;-68
2022/12/11 02:55:43;;;;;;;59.53;25.67;;;;;;;;;;4981497;28;20451;-68
2022/12/11 02:58:12;;;;;;;57.33;25.90;;;;;;;;;;4995873;28;20445;-69
2022/12/11 03:00:39;;;;;;;72.57;32.57;;;;;;;;;;4993527;28;20454;-67
2022/12/11 03:03:05;;;;;;;78.30;31.97;;;;;;;;;;4978910;28;20458;-68
2022/12/11 03:05:32;;;;;;;72.47;32.00;;;;;;;;;;4995021;28;20458;-68
2022/12/11 03:07:58;;;;;;;78.17;32.90;;;;;;;;;;5011440;28;20485;-69
2022/12/11 03:10:25;;;;;;;74.50;32.47;;;;;;;;;;4987426;28;20503;-68
2022/12/11 03:12:52;;;;;;;65.37;30.00;;;;;;;;;;5012402;28;20452;-68
2022/12/11 03:15:20;;;;;;;69.80;31.63;;;;;;;;;;5011507;28;20450;-68
2022/12/11 03:18:13;;;;;;;75.10;32.83;;;;;;;;;;4994972;28;20545;-67
2022/12/11 03:20:50;;;;;;;71.30;31.37;;;;;;;;;;5009293;28;20463;-67
2022/12/11 03:23:22;;;;;;;71.57;33.53;;;;;;;;;;4990934;28;20449;-68
2022/12/11 03:25:52;;;;;;;92.70;38.33;;;;;;;;;;5011777;28;20451;-68
2022/12/11 03:28:19;;;;;;;94.47;39.33;;;;;;;;;;5015703;28;20475;-68
2022/12/11 03:30:46;;;;;;;91.40;38.67;;;;;;;;;;4978471;28;20505;-67
2022/12/11 03:33:21;;;;;;;89.03;37.47;;;;;;;;;;5009855;28;20453;-68
2022/12/11 03:35:48;;;;;;;82.97;36.20;;;;;;;;;;4994582;28;20453;-68
2022/12/11 03:38:15;;;;;;;76.63;33.57;;;;;;;;;;4994704;28;20964;-68
2022/12/11 03:40:42;;;;;;;73.70;32.43;;;;;;;;;;4994735;28;20447;-68
2022/12/11 03:43:08;;;;;;;67.13;32.00;;;;;;;;;;4995148;28;20465;-68
2022/12/11 03:45:35;;;;;;;71.47;33.40;;;;;;;;;;4994312;28;20961;-68
2022/12/11 03:48:01;;;;;;;66.17;32.13;;;;;;;;;;4994183;28;21123;-68
2022/12/11 03:50:29;;;;;;;68.03;31.20;;;;;;;;;;4978010;28;21040;-68
2022/12/11 03:52:55;;;;;;;63.80;29.30;;;;;;;;;;5011481;28;20492;-68
2022/12/11 03:55:22;;;;;;;61.70;29.60;;;;;;;;;;4992544;28;20462;-68
2022/12/11 03:57:48;;;;;;;73.67;32.70;;;;;;;;;;5011708;28;20533;-68
2022/12/11 04:00:16;;;;;;;75.17;31.57;;;;;;;;;;4994054;28;20785;-68
2022/12/11 04:02:43;;;;;;;65.00;30.13;;;;;;;;;;4993668;28;20505;-68
2022/12/11 04:05:10;;;;;;;73.20;31.90;;;;;;;;;;4994360;28;20466;-68
2022/12/11 04:07:37;;;;;;;69.20;31.03;;;;;;;;;;4993072;28;20463;-68
2022/12/11 04:10:04;;;;;;;62.93;29.20;;;;;;;;;;4989575;28;20940;-68
2022/12/11 04:12:31;;;;;;;64.87;29.93;;;;;;;;;;4981791;28;20537;-68
2022/12/11 04:15:00;;;;;;;66.50;30.80;;;;;;;;;;5012414;28;20465;-68
2022/12/11 04:25:43;;;;;;;57.93;27.33;;;;;;;;;;5011446;28;20446;-68
2022/12/11 04:28:10;;;;;;;57.03;27.97;;;;;;;;;;5017247;28;20566;-68
2022/12/11 04:30:36;;;;;;;51.00;26.27;;;;;;;;;;4993878;28;20462;-68
2022/12/11 04:33:03;;;;;;;59.20;26.37;;;;;;;;;;5003425;28;20514;-67
2022/12/11 04:35:30;;;;;;;54.43;26.80;;;;;;;;;;4994193;28;21020;-68
2022/12/11 04:37:57;;;;;;;59.20;26.83;;;;;;;;;;4994246;28;20443;-68
2022/12/11 04:40:24;;;;;;;54.97;25.23;;;;;;;;;;5010520;28;20460;-68
2022/12/11 04:42:51;;;;;;;50.80;24.97;;;;;;;;;;4994092;28;20921;-68
2022/12/11 04:45:17;;;;;;;56.90;26.50;;;;;;;;;;5011679;28;20493;-68
2022/12/11 04:48:01;;;;;;;56.80;26.97;;;;;;;;;;5009589;28;20513;-68
2022/12/11 04:50:28;;;;;;;65.63;30.07;;;;;;;;;;5009803;28;20582;-68
2022/12/11 04:52:55;;;;;;;60.83;29.50;;;;;;;;;;5011973;28;20449;-68
2022/12/11 04:55:21;;;;;;;66.30;29.57;;;;;;;;;;4993138;28;20866;-68
2022/12/11 04:57:48;;;;;;;58.63;26.50;;;;;;;;;;4993369;28;20456;-68
2022/12/11 05:00:16;;;;;;;60.60;26.83;;;;;;;;;;5010480;28;20437;-68
2022/12/11 05:02:42;;;;;;;58.33;27.50;;;;;;;;;;4992514;28;20451;-68
2022/12/11 05:05:09;;;;;;;56.07;26.43;;;;;;;;;;5008441;28;20457;-68
2022/12/11 05:07:36;;;;;;;54.03;26.53;;;;;;;;;;4993238;28;20489;-68
2022/12/11 05:10:04;;;;;;;56.57;25.87;;;;;;;;;;4994448;28;20430;-68
2022/12/11 05:12:31;;;;;;;54.17;27.10;;;;;;;;;;5009029;28;20456;-68
2022/12/11 05:14:57;;;;;;;54.73;26.87;;;;;;;;;;5011476;28;20464;-68
2022/12/11 05:17:24;;;;;;;56.10;27.73;;;;;;;;;;5008618;28;20542;-68
2022/12/11 05:19:51;;;;;;;53.80;26.57;;;;;;;;;;5010426;28;20965;-68
2022/12/11 05:22:17;;;;;;;52.83;27.33;;;;;;;;;;4992626;28;20513;-68
2022/12/11 05:24:44;;;;;;;50.40;26.40;;;;;;;;;;4992411;28;20821;-67
2022/12/11 05:27:11;;;;;;;54.00;25.97;;;;;;;;;;4994994;28;20453;-68
2022/12/11 05:29:37;;;;;;;52.93;25.27;;;;;;;;;;5010147;28;20539;-69
2022/12/11 05:32:04;;;;;;;48.40;24.07;;;;;;;;;;5010383;28;20858;-68
2022/12/11 05:34:30;;;;;;;41.53;21.77;;;;;;;;;;4992014;28;20539;-68
2022/12/11 05:36:57;;;;;;;39.87;20.10;;;;;;;;;;5008587;28;20458;-68
2022/12/11 05:39:24;;;;;;;38.73;19.87;;;;;;;;;;5001879;28;21018;-67
2022/12/11 05:41:51;;;;;;;34.37;17.23;;;;;;;;;;4987856;28;20553;-68
2022/12/11 05:44:18;;;;;;;38.70;19.77;;;;;;;;;;4986571;28;20447;-68
2022/12/11 05:46:45;;;;;;;41.73;21.63;;;;;;;;;;4988774;28;21019;-69
2022/12/11 05:49:12;;;;;;;41.13;22.20;;;;;;;;;;4989859;28;20586;-69
2022/12/11 05:51:40;;;;;;;38.13;19.27;;;;;;;;;;5017015;28;20495;-68
2022/12/11 05:54:07;;;;;;;37.40;19.30;;;;;;;;;;5011240;28;20451;-69
2022/12/11 05:56:34;;;;;;;33.17;17.17;;;;;;;;;;4976157;28;20541;-67
2022/12/11 05:59:01;;;;;;;30.90;15.70;;;;;;;;;;4992982;28;21771;-68
2022/12/11 06:01:29;;;;;;;33.80;17.03;;;;;;;;;;4991842;28;20526;-68
2022/12/11 06:03:56;;;;;;;30.03;17.50;;;;;;;;;;4991752;28;20477;-67
2022/12/11 06:06:23;;;;;;;30.93;16.63;;;;;;;;;;4999577;28;20570;-66
2022/12/11 06:08:51;;;;;;;25.57;14.90;;;;;;;;;;4995919;28;20481;-65
2022/12/11 06:11:18;;;;;;;26.67;13.93;;;;;;;;;;4994305;28;20861;-69
2022/12/11 06:13:49;;;;;;;21.60;12.27;;;;;;;;;;5010136;28;20718;-69
2022/12/11 06:16:16;;;;;;;15.17;7.37;;;;;;;;;;4992700;28;20482;-69
2022/12/11 06:18:43;;;;;;;12.07;7.23;;;;;;;;;;4986300;28;20456;-68
2022/12/11 06:21:11;;;;;;;11.67;6.97;;;;;;;;;;4971745;28;20450;-70
2022/12/11 06:23:37;;;;;;;10.37;6.17;;;;;;;;;;4975436;28;20458;-67
2022/12/11 06:26:04;;;;;;;9.60;5.80;;;;;;;;;;4972434;28;20444;-68
2022/12/11 06:28:31;;;;;;;10.93;6.13;;;;;;;;;;5021241;28;20481;-68
2022/12/11 06:30:58;;;;;;;13.33;7.30;;;;;;;;;;4997310;28;20875;-68
2022/12/11 06:33:24;;;;;;;12.37;7.30;;;;;;;;;;4992215;28;21000;-68
2022/12/11 06:35:51;;;;;;;8.70;5.37;;;;;;;;;;4992080;28;20459;-67
2022/12/11 06:38:18;;;;;;;7.13;4.60;;;;;;;;;;5004576;28;20447;-68
2022/12/11 06:40:45;;;;;;;7.77;4.87;;;;;;;;;;4992401;28;20989;-69
2022/12/11 06:43:12;;;;;;;6.77;4.10;;;;;;;;;;4983709;28;21244;-67
2022/12/11 06:45:39;;;;;;;5.70;3.93;;;;;;;;;;4988291;28;20603;-67
2022/12/11 06:48:05;;;;;;;6.47;4.17;;;;;;;;;;5010400;28;20565;-66
2022/12/11 06:50:32;;;;;;;6.37;4.20;;;;;;;;;;5007763;28;20489;-67
2022/12/11 06:52:59;;;;;;;4.87;3.53;;;;;;;;;;5009707;28;20454;-69
2022/12/11 06:55:25;;;;;;;6.57;4.30;;;;;;;;;;4991544;28;20497;-69
2022/12/11 06:57:52;;;;;;;7.40;4.23;;;;;;;;;;4993439;28;20485;-68
2022/12/11 07:00:19;;;;;;;8.43;4.73;;;;;;;;;;4976950;28;20435;-68
2022/12/11 07:02:46;;;;;;;7.93;4.80;;;;;;;;;;5004456;28;20462;-68
2022/12/11 07:05:13;;;;;;;7.23;5.10;;;;;;;;;;5007087;28;20522;-69
2022/12/11 07:07:40;;;;;;;7.37;4.63;;;;;;;;;;5010171;28;21046;-68
2022/12/11 07:10:07;;;;;;;9.37;5.03;;;;;;;;;;5010386;28;20807;-67
2022/12/11 07:12:34;;;;;;;6.67;4.27;;;;;;;;;;5009972;28;20813;-68
2022/12/11 07:15:01;;;;;;;9.50;4.77;;;;;;;;;;4992094;28;20505;-67
2022/12/11 07:17:28;;;;;;;8.20;4.83;;;;;;;;;;5008749;28;21008;-68
2022/12/11 07:19:55;;;;;;;8.43;4.87;;;;;;;;;;5008988;28;20455;-68
2022/12/11 07:22:21;;;;;;;8.97;4.47;;;;;;;;;;4989871;28;20455;-70
2022/12/11 07:24:48;;;;;;;7.27;4.50;;;;;;;;;;4978266;28;20447;-66
2022/12/11 07:27:15;;;;;;;8.00;4.87;;;;;;;;;;5007420;28;20451;-66
2022/12/11 07:29:41;;;;;;;7.60;4.53;;;;;;;;;;5006106;28;20479;-66
2022/12/11 07:32:08;;;;;;;6.70;4.30;;;;;;;;;;4997942;28;20452;-67
2022/12/11 07:34:36;;;;;;;7.50;4.67;;;;;;;;;;4991899;28;20805;-67
2022/12/11 07:37:02;;;;;;;7.20;5.10;;;;;;;;;;5008490;28;20455;-68
2022/12/11 07:39:29;;;;;;;6.07;4.10;;;;;;;;;;4992815;28;20443;-68
2022/12/11 07:41:57;;;;;;;7.90;4.60;;;;;;;;;;4984478;28;20462;-68
2022/12/11 07:44:23;;;;;;;7.63;4.80;;;;;;;;;;5008601;28;20454;-67
2022/12/11 07:46:50;;;;;;;6.97;4.90;;;;;;;;;;5009348;28;20446;-67
2022/12/11 07:49:17;;;;;;;7.30;4.60;;;;;;;;;;5009537;28;20546;-68
2022/12/11 07:51:43;;;;;;;6.63;3.97;;;;;;;;;;5026782;28;20470;-65
2022/12/11 07:54:13;;;;;;;6.10;3.50;;;;;;;;;;5013306;28;20881;-66
2022/12/11 07:56:40;;;;;;;7.40;4.20;;;;;;;;;;5002939;28;20449;-65
2022/12/11 07:59:09;;;;;;;8.63;6.07;;;;;;;;;;5014186;28;20489;-66
2022/12/11 08:01:37;;;;;;;6.27;4.30;;;;;;;;;;4993392;28;20435;-67
2022/12/11 08:04:04;;;;;;;7.27;3.70;;;;;;;;;;4995943;28;20422;-66
2022/12/11 08:06:33;;;;;;;5.63;3.50;;;;;;;;;;4981111;28;20482;-67
2022/12/11 08:09:00;;;;;;;7.67;3.90;;;;;;;;;;4977709;28;20502;-66
2022/12/11 08:11:27;;;;;;;5.30;3.30;;;;;;;;;;5012478;28;20531;-67
2022/12/11 08:13:54;;;;;;;5.83;3.67;;;;;;;;;;5006590;28;20447;-67
2022/12/11 08:16:20;;;;;;;5.87;3.77;;;;;;;;;;4994330;28;20934;-67
2022/12/11 08:18:47;;;;;;;4.87;3.20;;;;;;;;;;4988427;28;20456;-67
2022/12/11 08:21:13;;;;;;;5.10;3.20;;;;;;;;;;4989141;28;20435;-67
2022/12/11 08:23:40;;;;;;;4.60;3.13;;;;;;;;;;4976997;28;20455;-67
2022/12/11 08:26:13;;;;;;;4.83;3.20;;;;;;;;;;5010246;28;20435;-67
2022/12/11 08:28:39;;;;;;;4.17;2.97;;;;;;;;;;4993127;28;20469;-67
2022/12/11 08:31:07;;;;;;;4.60;2.97;;;;;;;;;;5009786;28;20517;-67
2022/12/11 08:33:34;;;;;;;5.07;3.10;;;;;;;;;;5007837;28;21446;-67
2022/12/11 08:36:01;;;;;;;9.07;2.93;;;;;;;;;;4989015;28;20468;-67
2022/12/11 08:38:28;;;;;;;5.80;2.90;;;;;;;;;;4991173;28;20515;-67
2022/12/11 08:40:54;;;;;;;5.03;3.00;;;;;;;;;;5008912;28;20452;-67
2022/12/11 08:43:21;;;;;;;4.50;3.10;;;;;;;;;;5008270;28;20462;-67
2022/12/11 08:45:48;;;;;;;4.67;3.00;;;;;;;;;;5009736;28;20489;-67
2022/12/11 08:48:14;;;;;;;4.93;3.10;;;;;;;;;;5009074;28;20930;-67
2022/12/11 08:50:41;;;;;;;7.93;4.77;;;;;;;;;;4989013;28;20540;-67
2022/12/11 08:53:08;;;;;;;7.70;4.43;;;;;;;;;;4989642;28;20459;-67
2022/12/11 08:55:35;;;;;;;6.83;3.93;;;;;;;;;;4989690;28;20447;-67
2022/12/11 08:58:02;;;;;;;7.37;3.50;;;;;;;;;;4982323;28;20471;-68
2022/12/11 09:00:29;;;;;;;5.77;3.20;;;;;;;;;;4987448;28;20530;-67
2022/12/11 09:02:55;;;;;;;3.63;2.37;;;;;;;;;;4989824;28;20770;-67
2022/12/11 09:05:22;;;;;;;7.10;3.87;;;;;;;;;;4989975;28;20939;-68
2022/12/11 09:07:49;;;;;;;5.93;3.97;;;;;;;;;;4988379;28;20433;-67
2022/12/11 09:10:16;;;;;;;8.53;4.83;;;;;;;;;;4988599;28;20471;-68
2022/12/11 09:12:43;;;;;;;9.50;6.10;;;;;;;;;;4963494;28;20541;-67
2022/12/11 09:15:10;;;;;;;25.00;11.13;;;;;;;;;;4985999;28;20444;-67
2022/12/11 09:17:37;;;;;;;9.10;5.20;;;;;;;;;;4989621;28;20469;-66
2022/12/11 09:20:21;;;;;;;12.13;6.70;;;;;;;;;;4989323;28;20427;-66
2022/12/11 09:22:48;;;;;;;9.10;5.60;;;;;;;;;;4996387;28;20440;-67
2022/12/11 09:25:15;;;;;;;9.70;5.80;;;;;;;;;;4987028;28;20456;-66
2022/12/11 09:27:42;;;;;;;34.33;17.17;;;;;;;;;;4990466;28;20448;-66
2022/12/11 09:30:09;;;;;;;30.93;15.53;;;;;;;;;;4993938;28;20494;-66
2022/12/11 09:32:35;;;;;;;14.80;8.67;;;;;;;;;;4993151;28;20444;-67
2022/12/11 09:35:02;;;;;;;14.50;8.57;;;;;;;;;;4987074;28;20443;-66
2022/12/11 09:37:29;;;;;;;13.67;8.40;;;;;;;;;;4991891;28;21084;-67
2022/12/11 09:39:56;;;;;;;13.57;9.03;;;;;;;;;;4991418;28;20457;-66
2022/12/11 09:42:30;;;;;;;14.47;7.50;;;;;;;;;;4992287;28;20431;-67
2022/12/11 09:44:58;;;;;;;11.80;7.37;;;;;;;;;;4985360;28;20443;-66
2022/12/11 09:47:29;;;;;;;12.93;7.20;;;;;;;;;;4993340;28;20946;-66
2022/12/11 09:49:57;;;;;;;12.70;8.83;;;;;;;;;;4992046;28;20515;-67
2022/12/11 09:52:34;;;;;;;15.73;10.13;;;;;;;;;;4996371;28;20523;-67
2022/12/11 09:55:02;;;;;;;8.90;5.50;;;;;;;;;;4995228;28;20451;-68
2022/12/11 09:57:29;;;;;;;10.03;5.87;;;;;;;;;;5011233;28;20530;-69
2022/12/11 10:00:03;;;;;;;8.67;5.90;;;;;;;;;;5011773;28;20462;-68
2022/12/11 10:02:44;;;;;;;18.77;9.73;;;;;;;;;;4994726;28;20435;-67
2022/12/11 10:05:11;;;;;;;13.83;7.67;;;;;;;;;;5009697;28;20450;-67
2022/12/11 10:07:45;;;;;;;14.60;8.00;;;;;;;;;;5012271;28;20466;-67
2022/12/11 10:10:12;;;;;;;12.13;7.77;;;;;;;;;;5016914;28;20492;-67
2022/12/11 10:12:41;;;;;;;9.60;6.03;;;;;;;;;;5011513;28;20547;-67
2022/12/11 10:15:27;;;;;;;10.10;6.13;;;;;;;;;;5011845;28;20530;-67
2022/12/11 10:17:54;;;;;;;11.60;7.03;;;;;;;;;;4981770;28;20448;-67
2022/12/11 10:20:35;;;;;;;9.47;6.33;;;;;;;;;;4991101;28;20458;-68
2022/12/11 10:23:02;;;;;;;9.97;6.27;;;;;;;;;;4995351;28;20431;-68
2022/12/11 10:25:49;;;;;;;18.23;7.63;;;;;;;;;;4974618;28;20529;-68
2022/12/11 10:28:18;;;;;;;9.83;6.37;;;;;;;;;;4998193;28;20450;-68
2022/12/11 10:30:44;;;;;;;9.70;6.10;;;;;;;;;;4993533;28;20454;-68
2022/12/11 10:33:14;;;;;;;12.00;6.20;;;;;;;;;;5009955;28;20514;-68
2022/12/11 10:35:43;;;;;;;20.67;10.97;;;;;;;;;;4992273;28;20506;-69
2022/12/11 10:38:14;;;;;;;83.43;24.50;;;;;;;;;;5008187;28;20458;-67
2022/12/11 10:40:43;;;;;;;35.93;13.17;;;;;;;;;;4993667;28;20955;-68
2022/12/11 10:43:10;;;;;;;19.40;9.13;;;;;;;;;;5010385;28;20505;-69
2022/12/11 10:45:37;;;;;;;8.97;5.23;;;;;;;;;;5009894;28;20459;-68
2022/12/11 10:48:05;;;;;;;48.67;16.40;;;;;;;;;;5000812;28;20432;-70
2022/12/11 10:50:32;;;;;;;57.13;17.20;;;;;;;;;;4991856;28;20494;-70
2022/12/11 10:52:59;;;;;;;21.70;8.77;;;;;;;;;;4994878;28;20471;-70
2022/12/11 10:55:27;;;;;;;33.93;12.80;;;;;;;;;;5010045;28;20506;-70
2022/12/11 10:58:04;;;;;;;26.57;9.60;;;;;;;;;;4981923;28;20460;-70
2022/12/11 11:00:36;;;;;;;16.50;8.60;;;;;;;;;;4994638;28;20446;-70
2022/12/11 11:03:16;;;;;;;9.73;5.70;;;;;;;;;;5009504;28;20932;-71
2022/12/11 11:05:43;;;;;;;11.30;6.77;;;;;;;;;;4992622;28;20505;-71
2022/12/11 11:08:26;;;;;;;15.97;8.53;;;;;;;;;;4973315;28;20451;-67
2022/12/11 11:10:58;;;;;;;5.60;3.80;;;;;;;;;;4986272;28;20537;-67
2022/12/11 11:13:38;;;;;;;13.63;6.73;;;;;;;;;;4992121;28;20486;-67
2022/12/11 11:16:26;;;;;;;12.17;7.07;;;;;;;;;;4978145;28;20462;-73
2022/12/11 11:19:17;;;;;;;5.00;3.50;;;;;;;;;;4976279;28;21029;-68
2022/12/11 11:21:57;;;;;;;10.00;5.10;;;;;;;;;;4998400;28;20456;-68
2022/12/11 11:24:32;;;;;;;4.50;3.00;;;;;;;;;;4975232;28;20780;-71
2022/12/11 11:27:00;;;;;;;5.67;3.50;;;;;;;;;;4999258;28;20443;-68
2022/12/11 11:29:45;;;;;;;6.83;3.13;;;;;;;;;;4992114;28;20553;-73
2022/12/11 11:32:23;;;;;;;6.27;3.40;;;;;;;;;;5007953;28;20501;-68
2022/12/11 11:34:52;;;;;;;13.27;5.83;;;;;;;;;;4991943;28;20446;-67
2022/12/11 11:37:39;;;;;;;7.27;3.80;;;;;;;;;;5015939;28;20437;-68
2022/12/11 11:40:15;;;;;;;4.40;2.60;;;;;;;;;;5015810;28;20960;-69
2022/12/11 11:42:45;;;;;;;5.90;3.80;;;;;;;;;;5015489;28;20485;-67
2022/12/11 11:45:17;;;;;;;9.33;4.63;;;;;;;;;;4991221;28;20435;-67
2022/12/11 11:47:47;;;;;;;7.13;3.43;;;;;;;;;;4989744;28;20448;-67
2022/12/11 11:50:15;;;;;;;5.47;3.70;;;;;;;;;;4990936;28;20478;-67
2022/12/11 11:52:46;;;;;;;17.83;9.10;;;;;;;;;;4990383;28;20489;-68
2022/12/11 11:55:46;;;;;;;6.10;3.53;;;;;;;;;;4981187;28;20427;-68
2022/12/11 11:58:14;;;;;;;42.97;15.90;;;;;;;;;;4992178;28;21168;-68
2022/12/11 12:00:42;;;;;;;9.67;4.53;;;;;;;;;;5001890;28;20488;-68
2022/12/11 12:03:13;;;;;;;7.63;4.10;;;;;;;;;;4994349;28;20493;-66
2022/12/11 12:05:51;;;;;;;12.43;6.47;;;;;;;;;;5010506;28;20445;-68
2022/12/11 12:08:21;;;;;;;7.37;3.40;;;;;;;;;;5002812;28;20462;-68
2022/12/11 12:10:50;;;;;;;24.53;9.80;;;;;;;;;;5019083;28;20467;-68
2022/12/11 12:13:27;;;;;;;6.37;3.93;;;;;;;;;;4992067;28;20462;-68
2022/12/11 12:16:17;;;;;;;13.50;6.03;;;;;;;;;;5016252;28;20552;-67
2022/12/11 12:19:11;;;;;;;13.30;5.93;;;;;;;;;;4981910;28;20454;-68
2022/12/11 12:21:37;;;;;;;10.83;5.77;;;;;;;;;;5007467;28;20473;-69
2022/12/11 12:24:07;;;;;;;16.77;6.97;;;;;;;;;;4996760;28;20434;-68
2022/12/11 12:26:35;;;;;;;11.57;4.10;;;;;;;;;;4989199;28;20452;-68
2022/12/11 12:29:11;;;;;;;8.87;4.00;;;;;;;;;;4990293;28;20814;-68
2022/12/11 12:31:48;;;;;;;26.17;8.23;;;;;;;;;;5016858;28;20484;-70
2022/12/11 12:34:24;;;;;;;14.80;5.00;;;;;;;;;;4978207;28;20439;-69
2022/12/11 12:37:10;;;;;;;19.37;7.27;;;;;;;;;;5008721;28;20533;-69
2022/12/11 12:39:39;;;;;;;19.53;7.73;;;;;;;;;;5010495;28;20971;-69
2022/12/11 12:42:12;;;;;;;58.50;15.63;;;;;;;;;;5010342;28;20432;-69
2022/12/11 12:44:59;;;;;;;62.13;14.93;;;;;;;;;;4970407;28;20440;-67
2022/12/11 12:47:27;;;;;;;21.53;6.47;;;;;;;;;;4984046;28;21019;-70
2022/12/11 12:49:54;;;;;;;26.33;8.80;;;;;;;;;;4994251;28;20604;-69
2022/12/11 12:52:33;;;;;;;28.37;8.53;;;;;;;;;;4978958;28;20554;-70
2022/12/11 12:55:12;;;;;;;29.87;7.23;;;;;;;;;;5009850;28;20544;-69
2022/12/11 12:57:50;;;;;;;60.60;17.23;;;;;;;;;;4990995;28;20934;-68
2022/12/11 13:00:30;;;;;;;15.43;8.23;;;;;;;;;;4978089;28;20552;-72
2022/12/11 13:02:57;;;;;;;60.50;21.93;;;;;;;;;;5004755;28;20442;-72
2022/12/11 13:05:25;;;;;;;20.23;7.20;;;;;;;;;;4992464;28;20436;-72
2022/12/11 13:07:56;;;;;;;70.37;20.07;;;;;;;;;;4977885;28;20450;-72
2022/12/11 13:10:24;;;;;;;67.73;19.43;;;;;;;;;;4975188;28;20478;-73
2022/12/11 13:12:51;;;;;;;78.67;22.33;;;;;;;;;;4990847;28;20494;-73
2022/12/11 13:15:22;;;;;;;46.17;12.20;;;;;;;;;;4975367;28;20526;-73
2022/12/11 13:17:50;;;;;;;30.43;16.93;;;;;;;;;;4994344;28;20521;-73
2022/12/11 13:20:18;;;;;;;11.00;7.20;;;;;;;;;;5001301;28;20447;-73
2022/12/11 13:22:48;;;;;;;66.27;15.00;;;;;;;;;;4974187;28;20463;-73
2022/12/11 13:25:38;;;;;;;32.93;11.50;;;;;;;;;;4993470;28;20443;-73
2022/12/11 13:28:19;;;;;;;10.63;4.60;;;;;;;;;;4987899;28;20446;-72
2022/12/11 13:30:58;;;;;;;4.93;2.83;;;;;;;;;;5021475;28;20473;-72
2022/12/11 13:33:46;;;;;;;17.07;6.03;;;;;;;;;;4987280;28;20423;-72
2022/12/11 13:36:13;;;;;;;10.53;5.17;;;;;;;;;;5013834;28;20437;-71
2022/12/11 13:38:50;;;;;;;15.10;5.70;;;;;;;;;;5026168;28;20461;-72
2022/12/11 13:41:19;;;;;;;13.93;6.33;;;;;;;;;;4980439;28;20440;-72
2022/12/11 13:43:46;;;;;;;22.53;7.80;;;;;;;;;;5011767;28;20768;-71
2022/12/11 13:46:14;;;;;;;20.50;8.67;;;;;;;;;;5003457;28;20448;-71
2022/12/11 13:48:44;;;;;;;7.20;3.90;;;;;;;;;;4999757;28;20438;-71
2022/12/11 13:51:18;;;;;;;6.07;3.60;;;;;;;;;;5005154;28;20541;-71
2022/12/11 13:53:46;;;;;;;7.23;3.50;;;;;;;;;;4972144;28;20814;-71
2022/12/11 13:56:20;;;;;;;14.33;6.40;;;;;;;;;;4995136;28;20481;-71
2022/12/11 13:58:47;;;;;;;12.10;5.30;;;;;;;;;;5013239;28;20957;-71
2022/12/11 14:01:26;;;;;;;11.17;4.93;;;;;;;;;;4973166;28;21078;-71
2022/12/11 14:03:57;;;;;;;14.23;5.27;;;;;;;;;;5007037;28;20541;-70
2022/12/11 14:06:28;;;;;;;5.73;2.90;;;;;;;;;;5000507;28;20479;-69
2022/12/11 14:08:55;;;;;;;7.87;3.93;;;;;;;;;;4967572;28;20494;-69
2022/12/11 14:11:26;;;;;;;7.30;3.60;;;;;;;;;;4986974;28;20542;-67
2022/12/11 14:13:54;;;;;;;3.60;2.47;;;;;;;;;;5014542;28;20426;-68
2022/12/11 14:16:30;;;;;;;10.03;3.80;;;;;;;;;;4991725;28;20474;-69
2022/12/11 14:19:03;;;;;;;8.07;4.67;;;;;;;;;;5016293;28;20453;-71
2022/12/11 14:21:29;;;;;;;17.67;13.70;;;;;;;;;;4973059;28;20441;-69
2022/12/11 14:23:57;;;;;;;11.90;7.00;;;;;;;;;;4995860;28;20455;-69
2022/12/11 14:26:28;;;;;;;7.00;4.37;;;;;;;;;;4980426;28;20447;-69
2022/12/11 14:28:54;;;;;;;19.67;8.17;;;;;;;;;;5000987;28;20490;-70
2022/12/11 14:31:30;;;;;;;6.80;4.60;;;;;;;;;;5008897;28;20532;-69
2022/12/11 14:33:58;;;;;;;7.43;4.00;;;;;;;;;;4990779;28;20522;-72
2022/12/11 14:36:25;;;;;;;6.50;3.90;;;;;;;;;;5010799;28;20427;-72
2022/12/11 14:38:54;;;;;;;7.17;3.90;;;;;;;;;;4991377;28;20970;-76
2022/12/11 14:41:22;;;;;;;7.47;4.23;;;;;;;;;;5000470;28;20492;-71
2022/12/11 14:43:52;;;;;;;30.30;16.47;;;;;;;;;;5013606;28;20529;-70
2022/12/11 14:46:23;;;;;;;59.87;29.80;;;;;;;;;;5022187;28;20458;-71
2022/12/11 14:49:10;;;;;;;63.73;28.23;;;;;;;;;;4982465;28;20462;-70